createdAt,value
2022-09-07T00:09:12.268Z,14125.54102
2022-09-07T00:24:14.552Z,12938.11035
2022-09-07T00:39:17.187Z,5195.41455
2022-09-07T00:54:19.513Z,1034.52832
2022-09-07T01:09:21.803Z,863.19135
2022-09-07T01:24:24.033Z,712.45819
2022-09-07T01:39:26.323Z,541.12122
2022-09-07T01:54:28.608Z,343.75836
2022-09-07T02:09:30.812Z,211.46019
2022-09-07T02:24:33.058Z,74.82438
2022-09-07T02:39:35.710Z,9.7597
2022-09-07T02:54:38.032Z,0
2022-09-07T03:09:40.261Z,0
2022-09-07T03:24:42.495Z,0
2022-09-07T03:39:44.898Z,0
2022-09-07T03:54:47.357Z,0
2022-09-07T04:09:49.607Z,0
2022-09-07T04:24:51.874Z,0
2022-09-07T04:39:54.211Z,0
2022-09-07T04:54:56.548Z,0
2022-09-07T05:09:58.737Z,0
2022-09-07T05:25:00.952Z,0
2022-09-07T05:40:03.287Z,0
2022-09-07T05:55:28.129Z,0
2022-09-07T06:10:45.971Z,0
2022-09-07T06:25:48.271Z,0
2022-09-07T06:40:50.674Z,0
2022-09-07T06:55:53.056Z,0
2022-09-07T07:10:55.290Z,0
2022-09-07T07:25:57.564Z,0
2022-09-07T07:56:32.153Z,0
2022-09-07T08:11:34.512Z,0
2022-09-07T08:26:36.750Z,0
2022-09-07T08:41:38.955Z,0
2022-09-07T08:57:20.428Z,0
2022-09-07T09:12:23.247Z,0
2022-09-07T09:27:25.428Z,0
2022-09-07T09:42:27.858Z,0
2022-09-07T09:57:30.107Z,0
2022-09-07T10:12:32.323Z,0
2022-09-07T10:27:34.584Z,0
2022-09-07T10:42:36.864Z,0
2022-09-07T10:57:39.280Z,0
2022-09-07T11:12:41.670Z,0
2022-09-07T11:27:43.854Z,0
2022-09-07T11:42:46.087Z,0
2022-09-07T11:57:52.384Z,0
2022-09-07T12:12:57.175Z,0
2022-09-07T12:27:59.417Z,0
2022-09-07T12:43:09.527Z,0
2022-09-07T12:58:12.352Z,8.67529
2022-09-07T13:13:14.657Z,69.40232
2022-09-07T13:28:17.257Z,272.18723
2022-09-07T13:43:19.484Z,644.14032
2022-09-07T13:58:21.702Z,1006.33368
2022-09-07T14:13:23.936Z,848.00958
2022-09-07T14:28:26.421Z,3598.07666
2022-09-07T14:43:28.592Z,7474.84668
2022-09-07T14:58:31.220Z,10155.51172
2022-09-07T15:13:33.708Z,21674.12695
2022-09-07T15:44:08.485Z,2668.73608
2022-09-07T15:59:10.735Z,3035.26709
2022-09-07T16:14:12.953Z,3398.54492
2022-09-07T16:29:15.299Z,3795.43945
2022-09-07T16:44:17.511Z,3248.89624
2022-09-07T16:59:19.743Z,2712.11255
2022-09-07T17:14:21.937Z,2420.40601
2022-09-07T17:29:24.166Z,3638.19971
2022-09-07T17:44:26.413Z,3870.26392
2022-09-07T18:15:01.323Z,4849.4873
2022-09-07T18:30:03.630Z,4667.30615
2022-09-07T18:45:28.978Z,3231.54565
2022-09-07T19:00:31.499Z,7445.56787
2022-09-07T19:15:36.828Z,7266.63965
2022-09-07T19:30:39.832Z,5407.95898
2022-09-07T19:45:42.085Z,8952.89941
2022-09-07T20:00:44.330Z,9190.38574
2022-09-07T20:15:46.674Z,6501.04541
2022-09-07T20:30:54.001Z,5456.75732
2022-09-07T20:45:56.191Z,4941.66211
2022-09-07T21:00:58.453Z,5753.88623
2022-09-07T21:16:00.777Z,7907.52686
2022-09-07T21:31:03.068Z,5341.81006
2022-09-07T21:46:08.012Z,7891.26074
2022-09-07T22:01:11.056Z,6168.13135
2022-09-07T22:16:13.344Z,5105.4082
2022-09-07T22:31:15.751Z,6836.12842
2022-09-07T22:46:18.175Z,7999.70166
2022-09-07T23:01:20.572Z,8195.98047
2022-09-07T23:16:22.840Z,7666.7876
2022-09-07T23:31:25.341Z,7394.60059
2022-09-07T23:46:27.716Z,7456.41162
